Time;durP1;ratioP1;P1;durP2;ratioP2;P2;SDS_P1;SDS_P2;PMS_P1;PMS_P2;Temp;Humidity;BMP_temperature;BMP_pressure;BME280_temperature;BME280_humidity;BME280_pressure;Samples;Min_cycle;Max_cycle;Signal;HPM_P1;HPM_P2
2023/10/18 00:01:34;;;;;;;;;;;;;;;18.97;34.82;100971.78;109107;1265;66169;-89
2023/10/18 00:04:10;;;;;;;;;;;;;;;18.96;34.86;100976.20;109156;1266;66040;31
2023/10/18 00:06:36;;;;;;;;;;;;;;;18.96;34.89;100975.84;109205;1266;66041;-90
2023/10/18 00:11:51;;;;;;;;;;;;;;;18.96;34.91;100977.11;109065;1265;83310;-90
2023/10/18 00:14:20;;;;;;;;;;;;;;;18.95;34.89;100972.16;109025;1266;66159;-91
2023/10/18 00:16:46;;;;;;;;;;;;;;;18.95;35.05;100969.39;108974;1265;66171;-90
2023/10/18 00:19:13;;;;;;;;;;;;;;;18.96;34.87;100968.23;109057;1265;66253;-89
2023/10/18 00:21:39;;;;;;;;;;;;;;;18.96;34.96;100962.06;109058;1265;73423;-90
2023/10/18 00:26:51;;;;;;;;;;;;;;;18.95;34.98;100955.11;109000;1266;72909;-90
2023/10/18 00:29:17;;;;;;;;;;;;;;;18.95;34.93;100952.14;109003;1266;68174;-89
2023/10/18 00:31:46;;;;;;;;;;;;;;;18.95;34.91;100952.14;108985;1266;68417;-89
2023/10/18 00:34:15;;;;;;;;;;;;;;;18.95;34.99;100958.39;109026;1265;73256;-89
2023/10/18 00:39:27;;;;;;;;;;;;;;;18.95;35.01;100952.23;108987;1265;72672;-89
2023/10/18 00:41:58;;;;;;;;;;;;;;;18.94;34.89;100950.80;109019;1267;66490;-89
2023/10/18 00:44:27;;;;;;;;;;;;;;;18.94;35.09;100949.05;109077;1266;66883;-89
2023/10/18 00:46:56;;;;;;;;;;;;;;;18.94;35.09;100946.25;109017;1265;73604;-89
2023/10/18 00:49:21;;;;;;;;;;;;;;;18.94;35.06;100946.82;109053;1265;81984;-88
2023/10/18 00:51:57;;;;;;;;;;;;;;;18.94;34.98;100946.66;109000;1265;66872;31
2023/10/18 00:54:23;;;;;;;;;;;;;;;18.93;34.96;100943.33;109023;1266;66852;-89
2023/10/18 00:56:50;;;;;;;;;;;;;;;18.93;34.98;100941.95;108959;1265;66786;-90
2023/10/18 00:59:22;;;;;;;;;;;;;;;18.93;35.14;100939.87;109036;1265;66831;-89
2023/10/18 01:01:53;;;;;;;;;;;;;;;18.93;35.07;100933.89;109033;1265;82018;-90
2023/10/18 01:04:23;;;;;;;;;;;;;;;18.92;34.97;100931.74;108984;1266;73095;-89
2023/10/18 01:06:57;;;;;;;;;;;;;;;18.92;35.07;100935.57;109020;1266;66818;31
2023/10/18 01:09:24;;;;;;;;;;;;;;;18.92;34.93;100937.52;109038;1267;66718;-90
2023/10/18 01:11:52;;;;;;;;;;;;;;;18.92;35.11;100936.23;108979;1266;67136;-90
2023/10/18 01:14:24;;;;;;;;;;;;;;;18.92;35.03;100931.94;108947;1270;81331;-89
2023/10/18 01:16:56;;;;;;;;;;;;;;;18.92;35.00;100933.02;109140;1266;72697;-89
2023/10/18 01:19:22;;;;;;;;;;;;;;;18.92;34.98;100934.34;109075;1266;66654;-90
2023/10/18 01:21:51;;;;;;;;;;;;;;;18.92;35.10;100939.04;108981;1266;67758;-89
2023/10/18 01:24:17;;;;;;;;;;;;;;;18.91;35.10;100938.36;109045;1265;73441;-90
2023/10/18 01:26:46;;;;;;;;;;;;;;;18.91;35.03;100937.09;109024;1265;66927;-89
2023/10/18 01:29:12;;;;;;;;;;;;;;;18.92;35.03;100938.52;109040;1267;72130;-89
2023/10/18 01:31:45;;;;;;;;;;;;;;;18.91;35.04;100939.31;109017;1265;68160;-90
2023/10/18 01:34:11;;;;;;;;;;;;;;;18.91;34.99;100936.21;109043;1265;67680;-90
2023/10/18 01:36:57;;;;;;;;;;;;;;;18.91;35.05;100937.99;109001;1266;66727;31
2023/10/18 01:39:24;;;;;;;;;;;;;;;18.91;35.05;100935.19;108988;1267;81687;-89
2023/10/18 01:41:53;;;;;;;;;;;;;;;18.91;35.03;100941.36;108943;1265;72270;-90
2023/10/18 01:47:06;;;;;;;;;;;;;;;18.91;35.09;100944.41;109086;1265;66989;-89
2023/10/18 01:49:44;;;;;;;;;;;;;;;18.90;34.90;100944.36;109040;1265;73519;-89
2023/10/18 01:52:17;;;;;;;;;;;;;;;18.90;35.10;100948.29;109021;1265;82004;-90
2023/10/18 01:54:46;;;;;;;;;;;;;;;18.90;35.04;100946.91;109083;1265;73435;-91
2023/10/18 01:57:12;;;;;;;;;;;;;;;18.90;35.04;100945.17;109006;1266;66879;-90
2023/10/18 01:59:39;;;;;;;;;;;;;;;18.90;35.10;100946.65;109041;1265;66197;-90
2023/10/18 02:02:11;;;;;;;;;;;;;;;18.89;35.14;100942.15;108980;1268;73404;-90
2023/10/18 02:04:40;;;;;;;;;;;;;;;18.89;35.06;100936.96;109106;1266;81028;-89
2023/10/18 02:07:09;;;;;;;;;;;;;;;18.90;35.14;100936.30;109069;1266;72377;-90
2023/10/18 02:12:21;;;;;;;;;;;;;;;18.89;35.08;100945.37;109007;1267;66789;-89
2023/10/18 02:14:55;;;;;;;;;;;;;;;18.89;35.05;100946.90;109039;1265;74524;-89
2023/10/18 02:17:21;;;;;;;;;;;;;;;18.89;35.07;100949.96;108999;1265;83028;-90
2023/10/18 02:19:50;;;;;;;;;;;;;;;18.89;35.05;100950.30;108965;1266;66772;-90
2023/10/18 02:22:16;;;;;;;;;;;;;;;18.88;34.98;100951.92;109032;1266;67017;-89
2023/10/18 02:24:44;;;;;;;;;;;;;;;18.88;35.04;100958.97;109029;1265;66109;-89
2023/10/18 02:27:15;;;;;;;;;;;;;;;18.89;35.07;100957.59;109039;1265;74188;-90
2023/10/18 02:29:44;;;;;;;;;;;;;;;18.88;35.07;100958.80;109066;1265;81923;-90
2023/10/18 02:34:54;;;;;;;;;;;;;;;18.88;34.95;100955.95;108983;1266;67863;-90
2023/10/18 02:37:21;;;;;;;;;;;;;;;18.87;35.04;100956.98;109014;1265;66874;-90
2023/10/18 02:39:49;;;;;;;;;;;;;;;18.88;35.06;100958.70;109045;1266;74570;-91
2023/10/18 02:42:16;;;;;;;;;;;;;;;18.87;35.06;100958.17;109017;1266;82344;-90
2023/10/18 02:44:45;;;;;;;;;;;;;;;18.88;34.95;100960.38;108965;1266;73340;-90
2023/10/18 02:47:16;;;;;;;;;;;;;;;18.87;35.12;100963.70;108954;1266;66783;-90
2023/10/18 02:49:45;;;;;;;;;;;;;;;18.87;34.93;100961.84;108896;1272;66875;-90
2023/10/18 02:52:12;;;;;;;;;;;;;;;18.86;35.11;100960.05;109040;1266;74505;-90
2023/10/18 02:54:39;;;;;;;;;;;;;;;18.86;35.05;100963.41;109054;1266;82263;-90
2023/10/18 02:57:05;;;;;;;;;;;;;;;18.86;35.01;100961.84;108945;1266;72444;-90
2023/10/18 02:59:31;;;;;;;;;;;;;;;18.86;35.05;100958.56;108989;1266;66077;-89
2023/10/18 03:02:00;;;;;;;;;;;;;;;18.86;34.95;100955.35;109025;1266;66245;-91
2023/10/18 03:04:28;;;;;;;;;;;;;;;18.85;35.00;100955.05;109047;1266;73261;-90
2023/10/18 03:06:55;;;;;;;;;;;;;;;18.86;35.11;100953.89;109113;1266;83142;-90
2023/10/18 03:09:27;;;;;;;;;;;;;;;18.89;35.25;100959.43;108994;1266;67217;-90
2023/10/18 03:11:56;;;;;;;;;;;;;;;18.91;35.40;100956.31;109002;1266;66652;-90
2023/10/18 03:14:23;;;;;;;;;;;;;;;18.94;35.46;100957.33;109079;1266;66656;-89
2023/10/18 03:16:49;;;;;;;;;;;;;;;18.96;35.23;100959.02;109047;1266;73192;-90
2023/10/18 03:19:17;;;;;;;;;;;;;;;18.98;35.44;100961.04;109048;1266;66191;-90
2023/10/18 03:21:47;;;;;;;;;;;;;;;18.99;35.47;100961.77;109062;1266;73361;-90
2023/10/18 03:24:22;;;;;;;;;;;;;;;19.00;35.42;100966.45;109044;1266;67073;31
2023/10/18 03:26:47;;;;;;;;;;;;;;;19.01;35.39;100963.19;109024;1267;66800;-90
2023/10/18 03:29:15;;;;;;;;;;;;;;;19.01;35.58;100960.95;109021;1266;66782;-89
2023/10/18 03:31:42;;;;;;;;;;;;;;;19.02;35.51;100965.54;109078;1265;82172;-90
2023/10/18 03:34:18;;;;;;;;;;;;;;;19.01;35.55;100966.14;108956;1266;72783;-90
2023/10/18 03:36:51;;;;;;;;;;;;;;;18.94;35.56;100962.38;109012;1265;66977;-89
2023/10/18 03:39:21;;;;;;;;;;;;;;;18.78;35.53;100967.55;109067;1266;66734;-90
2023/10/18 03:41:53;;;;;;;;;;;;;;;18.59;35.61;100971.17;109036;1266;74639;-89
2023/10/18 03:44:21;;;;;;;;;;;;;;;18.43;35.53;100975.55;109099;1266;83013;-88
2023/10/18 03:46:47;;;;;;;;;;;;;;;18.29;35.64;100976.73;109066;1266;72178;-88
2023/10/18 03:49:31;;;;;;;;;;;;;;;18.18;35.53;100974.52;109024;1266;67025;-89
2023/10/18 03:51:57;;;;;;;;;;;;;;;18.03;35.63;100977.52;109049;1266;66680;-89
2023/10/18 03:54:43;;;;;;;;;;;;;;;17.95;35.74;100975.06;108961;1267;66133;-90
2023/10/18 03:57:39;;;;;;;;;;;;;;;17.95;35.69;100974.80;109020;1263;81253;31
2023/10/18 04:02:49;;;;;;;;;;;;;;;17.98;35.75;100976.47;108970;1269;67290;-91
2023/10/18 04:05:31;;;;;;;;;;;;;;;18.01;35.66;100973.33;109008;1266;66547;-90
2023/10/18 04:08:19;;;;;;;;;;;;;;;18.05;35.70;100972.34;108995;1265;73874;-90
2023/10/18 04:10:48;;;;;;;;;;;;;;;18.07;35.60;100966.86;108977;1266;82076;-90
2023/10/18 04:13:17;;;;;;;;;;;;;;;18.09;35.62;100962.98;109055;1265;72343;-91
2023/10/18 04:15:59;;;;;;;;;;;;;;;18.12;35.60;100964.67;108996;1262;66710;-90
2023/10/18 04:18:29;;;;;;;;;;;;;;;18.14;35.62;100966.16;109080;1265;66502;-90
2023/10/18 06:10:16;;;;;;;;;;;;;;;18.47;35.52;101000.14;108550;1266;555856;-88
2023/10/18 06:27:53;;;;;;;;;;;;;;;18.53;35.66;100998.63;108997;1266;80425;-87
2023/10/18 08:43:23;;;;;;;;;;;;;;;18.86;36.66;101006.05;108764;1269;82946;-90
2023/10/18 09:40:05;;;;;;;;;;;;;;;19.02;37.33;100963.34;109089;1266;74494;-91
2023/10/18 10:04:35;;;;;;;;;;;;;;;19.03;37.70;100965.50;108579;1266;67866;31
2023/10/18 11:41:09;;;;;;;;;;;;;;;19.27;38.22;100857.39;108771;1265;556270;-92
2023/10/18 14:12:13;;;;;;;;;;;;;;;19.27;38.22;100739.33;109069;1262;72323;-89
2023/10/18 14:59:14;;;;;;;;;;;;;;;19.48;38.10;100721.75;108936;1265;83060;-88
2023/10/18 15:01:39;;;;;;;;;;;;;;;19.46;38.16;100724.39;108949;1265;72773;-90
2023/10/18 15:04:07;;;;;;;;;;;;;;;19.43;38.07;100720.73;108943;1265;66721;-89
2023/10/18 15:09:15;;;;;;;;;;;;;;;19.28;37.86;100727.91;109137;1265;73543;-88
2023/10/18 15:11:41;;;;;;;;;;;;;;;19.20;37.93;100722.23;109151;1265;82683;-88
2023/10/18 15:14:07;;;;;;;;;;;;;;;19.13;37.80;100724.80;109140;1265;66792;-89
2023/10/18 16:11:43;;;;;;;;;;;;;;;19.24;37.64;100754.77;109215;1266;82964;-93
2023/10/18 20:54:55;;;;;;;;;;;;;;;19.05;38.32;100724.05;108768;1266;551108;31
